createdAt,value
2022-10-07T00:00:52.354Z,8.25
2022-10-07T00:02:55.427Z,8.25
2022-10-07T00:04:58.073Z,8.24
2022-10-07T00:07:00.734Z,8.23
2022-10-07T00:09:04.443Z,8.22
2022-10-07T00:11:10.118Z,8.22
2022-10-07T00:13:12.778Z,8.23
2022-10-07T00:15:15.629Z,8.21
2022-10-07T00:17:18.353Z,8.25
2022-10-07T00:19:21.100Z,8.20
2022-10-07T00:21:25.430Z,8.16
2022-10-07T00:23:28.177Z,8.12
2022-10-07T00:25:30.927Z,8.13
2022-10-07T00:27:33.619Z,8.11
2022-10-07T00:29:36.409Z,8.08
2022-10-07T00:31:39.359Z,8.03
2022-10-07T00:33:42.637Z,7.95
2022-10-07T00:35:46.883Z,7.83
2022-10-07T00:37:49.543Z,7.87
2022-10-07T00:39:52.124Z,7.78
2022-10-07T00:41:55.062Z,7.71
2022-10-07T00:43:58.764Z,7.64
2022-10-07T00:46:25.881Z,7.60
2022-10-07T00:48:32.124Z,7.56
2022-10-07T00:50:34.988Z,7.55
2022-10-07T00:52:47.640Z,7.56
2022-10-07T00:54:53.738Z,7.53
2022-10-07T00:56:59.244Z,7.48
2022-10-07T00:59:02.267Z,7.46
2022-10-07T01:01:05.251Z,7.41
2022-10-07T01:03:07.865Z,7.33
2022-10-07T01:05:11.214Z,7.26
2022-10-07T01:07:15.728Z,7.17
2022-10-07T01:09:21.084Z,7.08
2022-10-07T01:11:47.982Z,6.98
2022-10-07T01:14:08.829Z,6.90
2022-10-07T01:16:38.957Z,6.76
2022-10-07T01:19:10.972Z,6.65
2022-10-07T01:21:31.921Z,6.56
2022-10-07T01:24:00.230Z,6.48
2022-10-07T01:26:09.620Z,6.39
2022-10-07T01:28:38.032Z,6.33
2022-10-07T01:30:46.863Z,6.24
2022-10-07T01:32:56.746Z,6.22
2022-10-07T01:35:01.902Z,6.17
2022-10-07T01:37:08.819Z,6.14
2022-10-07T01:39:16.039Z,6.09
2022-10-07T01:41:20.261Z,6.07
2022-10-07T01:43:23.773Z,6.07
2022-10-07T01:45:30.641Z,6.06
2022-10-07T01:47:33.614Z,6.07
2022-10-07T01:49:37.229Z,6.08
2022-10-07T01:51:41.885Z,6.09
2022-10-07T01:53:50.036Z,6.12
2022-10-07T01:56:24.893Z,6.16
2022-10-07T01:59:12.541Z,6.15
2022-10-07T02:01:38.732Z,6.11
2022-10-07T02:04:04.968Z,6.07
2022-10-07T02:06:21.013Z,6.06
2022-10-07T02:08:33.936Z,6.04
2022-10-07T02:10:53.487Z,6.02
2022-10-07T02:13:29.214Z,5.98
2022-10-07T02:16:15.184Z,5.96
2022-10-07T02:18:20.051Z,5.93
2022-10-07T02:20:28.964Z,5.91
2022-10-07T02:22:31.865Z,5.90
2022-10-07T02:24:38.194Z,5.88
2022-10-07T02:26:42.465Z,5.85
2022-10-07T02:28:47.090Z,5.86
2022-10-07T02:30:54.259Z,5.82
2022-10-07T02:33:04.087Z,5.81
2022-10-07T02:35:16.553Z,5.79
2022-10-07T02:37:26.748Z,5.79
2022-10-07T02:39:29.595Z,5.79
2022-10-07T02:41:44.349Z,5.81
2022-10-07T02:43:56.451Z,5.78
2022-10-07T02:46:12.947Z,5.73
2022-10-07T02:48:37.758Z,5.73
2022-10-07T02:50:44.471Z,5.72
2022-10-07T02:52:47.737Z,5.68
2022-10-07T02:54:59.664Z,5.69
2022-10-07T02:57:03.129Z,5.67
2022-10-07T02:59:11.860Z,5.64
2022-10-07T03:01:27.571Z,5.62
2022-10-07T03:03:30.632Z,5.62
2022-10-07T03:05:35.247Z,5.63
2022-10-07T03:07:38.096Z,5.60
2022-10-07T03:09:42.154Z,5.61
2022-10-07T03:11:44.874Z,5.62
2022-10-07T03:13:47.633Z,5.64
2022-10-07T03:15:50.302Z,5.60
2022-10-07T03:17:53.232Z,5.57
2022-10-07T03:19:55.798Z,5.57
2022-10-07T03:21:58.384Z,5.57
2022-10-07T03:24:08.293Z,5.55
2022-10-07T03:26:10.931Z,5.49
2022-10-07T03:28:15.036Z,5.43
2022-10-07T03:30:20.157Z,5.43
2022-10-07T03:32:29.221Z,5.43
2022-10-07T03:34:32.349Z,5.45
2022-10-07T03:36:35.812Z,5.52
2022-10-07T03:38:38.862Z,5.52
2022-10-07T03:40:44.458Z,5.55
2022-10-07T03:42:47.263Z,5.56
2022-10-07T03:44:50.368Z,5.61
2022-10-07T03:46:53.454Z,5.64
2022-10-07T03:48:56.421Z,5.63
2022-10-07T03:50:59.486Z,5.67
2022-10-07T03:53:02.079Z,5.68
2022-10-07T03:55:05.085Z,5.69
2022-10-07T03:57:27.614Z,5.71
2022-10-07T03:59:30.460Z,5.73
2022-10-07T04:01:33.268Z,5.77
2022-10-07T04:03:35.946Z,5.79
2022-10-07T04:05:38.558Z,5.82
2022-10-07T04:07:41.355Z,5.81
2022-10-07T04:09:44.096Z,5.86
2022-10-07T04:11:46.707Z,5.89
2022-10-07T04:13:49.479Z,5.93
2022-10-07T04:15:52.976Z,5.98
2022-10-07T04:18:00.310Z,5.99
2022-10-07T04:20:02.989Z,6.07
2022-10-07T04:22:08.944Z,6.13
2022-10-07T04:24:12.067Z,6.21
2022-10-07T04:26:15.576Z,6.24
2022-10-07T04:28:24.441Z,6.31
2022-10-07T04:30:29.409Z,6.31
2022-10-07T04:32:32.152Z,6.31
2022-10-07T04:34:34.755Z,6.32
2022-10-07T04:36:38.090Z,6.38
2022-10-07T04:38:42.836Z,6.43
2022-10-07T04:40:48.616Z,6.46
2022-10-07T04:43:09.753Z,6.49
2022-10-07T04:45:12.436Z,6.53
2022-10-07T04:47:15.143Z,6.57
2022-10-07T04:49:17.778Z,6.59
2022-10-07T04:51:20.906Z,6.64
2022-10-07T04:53:23.531Z,6.71
2022-10-07T04:55:26.789Z,6.71
2022-10-07T04:57:29.835Z,6.73
2022-10-07T04:59:33.736Z,6.73
2022-10-07T05:01:37.301Z,6.78
2022-10-07T05:03:40.879Z,6.85
2022-10-07T05:05:46.377Z,6.87
2022-10-07T05:07:53.811Z,6.88
2022-10-07T05:09:56.505Z,6.89
2022-10-07T05:11:59.148Z,6.90
2022-10-07T05:14:02.269Z,6.89
2022-10-07T05:16:05.297Z,6.90
2022-10-07T05:18:08.168Z,6.88
2022-10-07T05:20:12.587Z,6.89
2022-10-07T05:22:15.390Z,6.92
2022-10-07T05:24:18.015Z,6.90
2022-10-07T05:26:20.730Z,6.90
2022-10-07T05:28:24.310Z,6.88
2022-10-07T05:30:27.016Z,6.89
2022-10-07T05:32:29.674Z,6.92
2022-10-07T05:34:32.400Z,6.86
2022-10-07T05:36:35.526Z,6.95
2022-10-07T05:38:38.550Z,6.95
2022-10-07T05:40:41.226Z,6.96
2022-10-07T05:42:43.857Z,6.99
2022-10-07T05:44:46.427Z,6.99
2022-10-07T05:46:49.555Z,6.95
2022-10-07T05:48:54.072Z,6.85
2022-10-07T05:50:59.583Z,6.84
2022-10-07T05:53:02.230Z,6.75
2022-10-07T05:55:05.315Z,6.70
2022-10-07T05:57:07.943Z,6.69
2022-10-07T05:59:10.792Z,6.65
2022-10-07T06:01:19.193Z,6.67
2022-10-07T06:03:22.969Z,6.61
2022-10-07T06:05:25.865Z,6.62
2022-10-07T06:07:29.744Z,6.61
2022-10-07T06:09:51.419Z,6.56
2022-10-07T06:12:12.347Z,6.47
2022-10-07T06:14:15.300Z,6.47
2022-10-07T06:16:18.315Z,6.44
2022-10-07T06:18:21.143Z,6.37
2022-10-07T06:20:23.747Z,6.38
2022-10-07T06:22:26.449Z,6.39
2022-10-07T06:24:29.231Z,6.38
2022-10-07T06:26:32.071Z,6.33
2022-10-07T06:28:40.061Z,6.32
2022-10-07T06:30:42.865Z,6.32
2022-10-07T06:32:45.886Z,6.31
2022-10-07T06:34:48.486Z,6.29
2022-10-07T06:36:51.202Z,6.31
2022-10-07T06:38:56.218Z,6.31
2022-10-07T06:41:00.432Z,6.34
2022-10-07T06:43:03.276Z,6.31
2022-10-07T06:45:06.525Z,6.29
2022-10-07T06:47:11.618Z,6.25
2022-10-07T06:49:14.761Z,6.25
2022-10-07T06:51:20.102Z,6.29
2022-10-07T06:53:22.955Z,6.31
2022-10-07T06:55:27.129Z,6.26
2022-10-07T06:57:46.230Z,6.33
2022-10-07T06:59:49.488Z,6.35
2022-10-07T07:01:52.396Z,6.36
2022-10-07T07:03:55.324Z,6.39
2022-10-07T07:05:58.737Z,6.33
2022-10-07T07:08:01.580Z,6.34
2022-10-07T07:10:04.492Z,6.39
2022-10-07T07:12:07.115Z,6.37
2022-10-07T07:14:11.901Z,6.39
2022-10-07T07:16:14.494Z,6.41
2022-10-07T07:18:17.195Z,6.44
2022-10-07T07:20:19.947Z,6.40
2022-10-07T07:22:22.554Z,6.44
2022-10-07T07:24:25.193Z,6.42
2022-10-07T07:26:28.837Z,6.44
2022-10-07T07:28:31.686Z,6.52
2022-10-07T07:30:34.864Z,6.54
2022-10-07T07:32:37.797Z,6.57
2022-10-07T07:34:40.468Z,6.62
2022-10-07T07:36:46.194Z,6.63
2022-10-07T07:38:53.981Z,6.67
2022-10-07T07:40:56.617Z,6.67
2022-10-07T07:42:59.186Z,6.72
2022-10-07T07:45:01.953Z,6.78
2022-10-07T07:47:06.688Z,6.83
2022-10-07T07:49:11.149Z,6.83
2022-10-07T07:51:16.143Z,6.89
2022-10-07T07:53:19.146Z,6.93
2022-10-07T07:55:23.468Z,6.93
2022-10-07T07:57:27.557Z,6.98
2022-10-07T07:59:31.425Z,7.01
2022-10-07T08:01:35.569Z,6.99
2022-10-07T08:03:39.696Z,7.04
2022-10-07T08:05:42.529Z,7.07
2022-10-07T08:07:45.652Z,7.09
2022-10-07T08:09:49.203Z,7.13
2022-10-07T08:11:51.865Z,7.13
2022-10-07T08:13:56.335Z,7.15
2022-10-07T08:15:59.655Z,7.19
2022-10-07T08:18:03.540Z,7.22
2022-10-07T08:20:06.682Z,7.24
2022-10-07T08:22:09.761Z,7.25
2022-10-07T08:24:14.199Z,7.29
2022-10-07T08:26:16.843Z,7.27
2022-10-07T08:28:19.605Z,7.35
2022-10-07T08:30:23.584Z,7.37
2022-10-07T08:32:26.195Z,7.41
2022-10-07T08:34:28.866Z,7.45
2022-10-07T08:36:33.169Z,7.49
2022-10-07T08:38:38.120Z,7.51
2022-10-07T08:40:47.720Z,7.56
2022-10-07T08:42:50.306Z,7.56
2022-10-07T08:44:53.472Z,7.60
2022-10-07T08:47:18.072Z,7.62
2022-10-07T08:49:31.160Z,7.63
2022-10-07T08:51:42.836Z,7.67
2022-10-07T08:53:49.041Z,7.67
2022-10-07T08:55:56.707Z,7.72
2022-10-07T08:58:44.327Z,7.77
2022-10-07T09:00:56.011Z,7.76
2022-10-07T09:03:15.610Z,7.76
2022-10-07T09:05:26.258Z,7.79
2022-10-07T09:07:31.956Z,7.84
2022-10-07T09:09:47.332Z,7.87
2022-10-07T09:11:51.407Z,7.90
2022-10-07T09:13:59.936Z,7.94
2022-10-07T09:16:07.788Z,7.97
2022-10-07T09:18:41.646Z,8.03
2022-10-07T09:20:52.537Z,8.07
2022-10-07T09:22:57.771Z,8.10
2022-10-07T09:25:20.904Z,8.14
2022-10-07T09:27:23.572Z,8.16
2022-10-07T09:29:29.424Z,8.20
2022-10-07T09:31:32.906Z,8.22
2022-10-07T09:33:42.580Z,8.22
2022-10-07T09:35:57.524Z,8.26
2022-10-07T09:38:03.938Z,8.28
2022-10-07T09:41:02.369Z,8.31
2022-10-07T09:43:14.297Z,8.29
2022-10-07T09:45:26.379Z,8.33
2022-10-07T09:47:42.235Z,8.35
2022-10-07T09:49:51.637Z,8.38
2022-10-07T09:52:07.302Z,8.43
2022-10-07T09:54:19.957Z,8.47
2022-10-07T09:56:39.323Z,8.49
2022-10-07T09:58:42.196Z,8.55
2022-10-07T10:00:47.894Z,8.60
2022-10-07T10:03:11.247Z,8.62
2022-10-07T10:05:35.485Z,8.67
2022-10-07T10:07:48.519Z,8.65
2022-10-07T10:09:53.022Z,8.68
2022-10-07T10:12:14.821Z,8.66
2022-10-07T10:14:35.772Z,8.71
2022-10-07T10:16:40.747Z,8.68
2022-10-07T10:18:59.057Z,8.77
2022-10-07T10:21:49.169Z,8.75
2022-10-07T10:23:54.162Z,8.76
2022-10-07T10:26:23.244Z,8.78
2022-10-07T10:28:46.307Z,8.77
2022-10-07T10:31:00.304Z,8.77
2022-10-07T10:33:19.946Z,8.80
2022-10-07T10:35:32.566Z,8.82
2022-10-07T10:37:40.843Z,8.85
2022-10-07T10:39:52.646Z,8.88
2022-10-07T10:42:04.489Z,8.90
2022-10-07T10:44:21.797Z,8.91
2022-10-07T10:46:51.683Z,8.91
2022-10-07T10:49:25.617Z,8.91
2022-10-07T10:51:38.844Z,8.94
2022-10-07T10:53:59.377Z,8.97
2022-10-07T10:56:01.877Z,9.00
2022-10-07T10:58:11.646Z,9.02
2022-10-07T11:00:22.417Z,9.04
2022-10-07T11:02:37.493Z,9.11
2022-10-07T11:04:50.448Z,9.14
2022-10-07T11:07:09.647Z,9.18
2022-10-07T11:09:50.001Z,9.23
2022-10-07T11:11:53.265Z,9.27
2022-10-07T11:14:05.826Z,9.25
2022-10-07T11:16:22.455Z,9.34
2022-10-07T11:18:27.822Z,9.34
2022-10-07T11:20:41.029Z,9.39
2022-10-07T11:22:56.958Z,9.30
2022-10-07T11:25:12.281Z,9.41
2022-10-07T11:27:20.766Z,9.47
2022-10-07T11:29:34.238Z,9.50
2022-10-07T11:31:42.748Z,9.52
2022-10-07T11:33:55.153Z,9.56
2022-10-07T11:36:09.341Z,9.64
2022-10-07T11:38:14.885Z,9.70
2022-10-07T11:40:19.980Z,9.78
2022-10-07T11:42:29.078Z,9.81
2022-10-07T11:44:39.797Z,9.86
2022-10-07T11:46:46.062Z,9.90
2022-10-07T11:49:06.679Z,9.94
2022-10-07T11:51:16.586Z,9.97
2022-10-07T11:53:23.989Z,10.00
2022-10-07T11:55:32.547Z,10.04
2022-10-07T11:57:37.864Z,10.10
2022-10-07T12:00:02.537Z,10.12
2022-10-07T12:02:22.078Z,10.15
2022-10-07T12:04:35.685Z,10.18
2022-10-07T12:06:38.349Z,10.21
2022-10-07T12:08:43.095Z,10.23
2022-10-07T12:10:45.893Z,10.25
2022-10-07T12:12:51.446Z,10.28
2022-10-07T12:15:02.462Z,10.32
2022-10-07T12:17:23.722Z,10.35
2022-10-07T12:19:26.472Z,10.39
2022-10-07T12:21:29.138Z,10.43
2022-10-07T12:23:37.665Z,10.48
2022-10-07T12:25:47.225Z,10.54
2022-10-07T12:27:51.453Z,10.61
2022-10-07T12:30:04.218Z,10.67
2022-10-07T12:32:43.051Z,10.69
2022-10-07T12:34:47.595Z,10.67
2022-10-07T12:36:50.352Z,10.67
2022-10-07T12:38:59.497Z,10.69
2022-10-07T12:41:07.289Z,10.74
2022-10-07T12:43:37.000Z,10.85
2022-10-07T12:45:43.743Z,11.05
2022-10-07T12:47:48.564Z,11.23
2022-10-07T12:50:11.687Z,11.28
2022-10-07T12:52:20.227Z,11.36
2022-10-07T12:54:50.800Z,11.36
2022-10-07T12:56:54.104Z,11.36
2022-10-07T12:59:18.042Z,11.37
2022-10-07T13:01:39.464Z,11.31
2022-10-07T13:04:03.912Z,11.28
2022-10-07T13:06:35.190Z,11.21
2022-10-07T13:08:49.665Z,11.20
2022-10-07T13:11:13.670Z,11.17
2022-10-07T13:13:44.554Z,11.15
2022-10-07T13:15:58.425Z,11.40
2022-10-07T13:18:12.963Z,11.72
2022-10-07T13:20:21.188Z,11.88
2022-10-07T13:22:27.122Z,11.92
2022-10-07T13:24:30.250Z,11.97
2022-10-07T13:26:33.536Z,12.04
2022-10-07T13:28:49.276Z,12.26
2022-10-07T13:30:53.272Z,12.14
2022-10-07T13:32:56.032Z,11.98
2022-10-07T13:34:59.948Z,11.89
2022-10-07T13:37:02.680Z,11.98
2022-10-07T13:39:20.756Z,12.12
2022-10-07T13:41:29.189Z,12.20
2022-10-07T13:43:33.936Z,12.21
2022-10-07T13:45:45.655Z,12.18
2022-10-07T13:47:48.777Z,12.01
2022-10-07T13:49:54.106Z,11.87
2022-10-07T13:52:01.651Z,11.69
2022-10-07T13:54:08.072Z,11.55
2022-10-07T13:56:24.580Z,11.40
2022-10-07T13:58:27.739Z,11.29
2022-10-07T14:00:36.229Z,11.18
2022-10-07T14:02:42.588Z,10.96
2022-10-07T14:05:05.179Z,10.97
2022-10-07T14:07:13.610Z,10.88
2022-10-07T14:09:21.756Z,10.82
2022-10-07T14:11:24.536Z,10.73
2022-10-07T14:13:29.183Z,10.67
2022-10-07T14:15:35.093Z,10.61
2022-10-07T14:17:44.745Z,10.50
2022-10-07T14:19:56.819Z,10.49
2022-10-07T14:22:02.364Z,10.43
2022-10-07T14:24:10.137Z,10.39
2022-10-07T14:26:15.001Z,10.35
2022-10-07T14:28:24.777Z,10.30
2022-10-07T14:30:55.541Z,10.29
2022-10-07T14:33:25.252Z,10.21
2022-10-07T14:35:28.359Z,10.16
2022-10-07T14:37:31.969Z,10.10
2022-10-07T14:39:37.949Z,10.04
2022-10-07T14:41:40.616Z,10.03
2022-10-07T14:43:45.754Z,10.00
2022-10-07T14:45:48.555Z,9.96
2022-10-07T14:47:51.401Z,9.92
2022-10-07T14:49:59.614Z,9.92
2022-10-07T14:52:03.927Z,9.92
2022-10-07T14:54:08.015Z,9.98
2022-10-07T14:56:15.263Z,10.03
2022-10-07T14:58:17.968Z,10.06
2022-10-07T15:00:23.064Z,10.12
2022-10-07T15:02:26.644Z,10.16
2022-10-07T15:04:29.413Z,10.21
2022-10-07T15:06:32.219Z,10.22
2022-10-07T15:08:34.821Z,10.27
2022-10-07T15:10:41.473Z,10.30
2022-10-07T15:12:44.696Z,10.31
2022-10-07T15:14:47.827Z,10.31
2022-10-07T15:16:50.855Z,10.32
2022-10-07T15:18:54.451Z,10.33
2022-10-07T15:20:57.826Z,10.33
2022-10-07T15:23:02.844Z,10.30
2022-10-07T15:25:06.878Z,10.25
2022-10-07T15:27:10.142Z,10.22
2022-10-07T15:29:15.225Z,10.16
2022-10-07T15:31:17.946Z,10.15
2022-10-07T15:33:20.768Z,10.16
2022-10-07T15:35:24.620Z,10.14
2022-10-07T15:37:27.676Z,10.15
2022-10-07T15:39:30.362Z,10.15
2022-10-07T15:41:38.607Z,10.15
2022-10-07T15:43:41.306Z,10.14
2022-10-07T15:45:47.622Z,10.13
2022-10-07T15:47:55.711Z,10.11
2022-10-07T15:50:02.065Z,10.09
2022-10-07T15:52:08.224Z,10.09
2022-10-07T15:54:11.382Z,10.11
2022-10-07T15:56:14.086Z,10.13
2022-10-07T15:58:18.006Z,10.15
2022-10-07T16:00:22.010Z,10.18
2022-10-07T16:02:27.755Z,10.23
2022-10-07T16:04:30.497Z,10.25
2022-10-07T16:06:35.512Z,10.27
2022-10-07T16:08:38.303Z,10.28
2022-10-07T16:10:40.946Z,10.28
2022-10-07T16:12:43.891Z,10.26
2022-10-07T16:14:47.656Z,10.25
2022-10-07T16:16:51.000Z,10.24
2022-10-07T16:18:57.039Z,10.25
2022-10-07T16:21:04.221Z,10.25
2022-10-07T16:23:06.898Z,10.23
2022-10-07T16:25:09.714Z,10.21
2022-10-07T16:27:13.611Z,10.22
2022-10-07T16:29:38.374Z,10.20
2022-10-07T16:31:42.827Z,10.17
2022-10-07T16:33:50.391Z,10.14
2022-10-07T16:35:53.080Z,10.13
2022-10-07T16:37:56.122Z,10.11
2022-10-07T16:39:59.129Z,10.05
2022-10-07T16:42:01.868Z,10.00
2022-10-07T16:44:05.260Z,10.01
2022-10-07T16:46:11.440Z,10.00
2022-10-07T16:48:17.523Z,10.01
2022-10-07T16:50:21.282Z,10.00
2022-10-07T16:52:25.701Z,10.00
2022-10-07T16:54:30.609Z,10.03
2022-10-07T16:56:35.889Z,10.04
2022-10-07T16:58:38.990Z,10.03
2022-10-07T17:00:41.794Z,10.06
2022-10-07T17:02:44.501Z,10.07
2022-10-07T17:04:47.231Z,10.08
2022-10-07T17:06:50.060Z,9.99
2022-10-07T17:08:54.755Z,10.07
2022-10-07T17:10:57.375Z,10.09
2022-10-07T17:13:00.052Z,10.11
2022-10-07T17:15:03.417Z,10.12
2022-10-07T17:17:07.993Z,10.11
2022-10-07T17:19:17.854Z,10.12
2022-10-07T17:21:21.154Z,10.18
2022-10-07T17:23:26.034Z,10.22
2022-10-07T17:25:28.847Z,10.26
2022-10-07T17:27:31.443Z,10.30
2022-10-07T17:29:34.458Z,10.29
2022-10-07T17:31:43.609Z,10.35
2022-10-07T17:33:46.596Z,10.36
2022-10-07T17:35:49.264Z,10.38
2022-10-07T17:37:54.214Z,10.40
2022-10-07T17:39:56.897Z,10.40
2022-10-07T17:41:59.539Z,10.42
2022-10-07T17:44:04.680Z,10.41
2022-10-07T17:46:12.929Z,10.43
2022-10-07T17:48:15.968Z,10.43
2022-10-07T17:50:18.589Z,10.44
2022-10-07T17:52:26.563Z,10.46
2022-10-07T17:54:30.140Z,10.42
2022-10-07T17:56:33.146Z,10.46
2022-10-07T17:58:40.553Z,10.47
2022-10-07T18:00:43.222Z,10.49
2022-10-07T18:02:50.296Z,10.47
2022-10-07T18:04:53.121Z,10.49
2022-10-07T18:06:55.873Z,10.50
2022-10-07T18:09:04.612Z,10.41
2022-10-07T18:11:08.020Z,10.49
2022-10-07T18:13:29.325Z,10.49
2022-10-07T18:15:32.035Z,10.45
2022-10-07T18:17:36.961Z,10.45
2022-10-07T18:19:40.696Z,10.44
2022-10-07T18:21:48.333Z,10.45
2022-10-07T18:23:52.392Z,10.42
2022-10-07T18:25:58.145Z,10.41
2022-10-07T18:28:05.726Z,10.28
2022-10-07T18:30:09.131Z,10.34
2022-10-07T18:32:11.846Z,10.31
2022-10-07T18:34:14.565Z,10.28
2022-10-07T18:36:19.591Z,10.23
2022-10-07T18:38:22.171Z,10.16
2022-10-07T18:40:25.048Z,10.14
2022-10-07T18:42:28.047Z,10.09
2022-10-07T18:44:31.241Z,10.09
2022-10-07T18:46:33.997Z,10.04
2022-10-07T18:48:39.100Z,10.02
2022-10-07T18:50:50.748Z,10.01
2022-10-07T18:52:54.409Z,9.99
2022-10-07T18:54:57.274Z,9.95
2022-10-07T18:56:59.930Z,9.97
2022-10-07T18:59:02.582Z,9.99
2022-10-07T19:01:20.224Z,9.99
2022-10-07T19:03:23.082Z,9.99
2022-10-07T19:05:27.068Z,9.99
2022-10-07T19:07:31.542Z,9.98
2022-10-07T19:09:34.176Z,9.99
2022-10-07T19:11:37.054Z,9.95
2022-10-07T19:13:48.798Z,9.97
2022-10-07T19:15:52.139Z,9.91
2022-10-07T19:17:54.727Z,9.92
2022-10-07T19:20:01.766Z,9.90
2022-10-07T19:22:06.356Z,9.89
2022-10-07T19:24:09.209Z,9.88
2022-10-07T19:26:12.732Z,9.87
2022-10-07T19:28:15.482Z,9.84
2022-10-07T19:30:18.291Z,9.82
2022-10-07T19:32:21.360Z,9.80
2022-10-07T19:34:27.279Z,9.77
2022-10-07T19:36:32.186Z,9.73
2022-10-07T19:38:35.103Z,9.71
2022-10-07T19:40:45.282Z,9.70
2022-10-07T19:42:48.287Z,9.68
2022-10-07T19:44:51.051Z,9.68
2022-10-07T19:46:54.440Z,9.67
2022-10-07T19:48:59.051Z,9.65
2022-10-07T19:51:07.016Z,9.64
2022-10-07T19:53:10.463Z,9.64
2022-10-07T19:55:13.116Z,9.68
2022-10-07T19:57:15.864Z,9.68
2022-10-07T19:59:18.708Z,9.73
2022-10-07T20:01:27.043Z,9.78
2022-10-07T20:03:29.778Z,9.80
2022-10-07T20:05:32.560Z,9.81
2022-10-07T20:07:36.325Z,9.82
2022-10-07T20:09:38.967Z,9.84
2022-10-07T20:11:42.632Z,9.82
2022-10-07T20:13:45.357Z,9.84
2022-10-07T20:15:48.124Z,9.85
2022-10-07T20:17:50.763Z,9.87
2022-10-07T20:19:53.973Z,9.87
2022-10-07T20:21:56.810Z,9.84
2022-10-07T20:23:59.466Z,9.83
2022-10-07T20:26:20.228Z,9.80
2022-10-07T20:28:23.009Z,9.80
2022-10-07T20:30:25.696Z,9.81
2022-10-07T20:32:31.479Z,9.79
2022-10-07T20:34:34.113Z,9.82
2022-10-07T20:36:38.730Z,9.82
2022-10-07T20:39:00.478Z,9.82
2022-10-07T20:41:21.685Z,9.86
2022-10-07T20:43:24.366Z,9.85
2022-10-07T20:45:27.281Z,9.87
2022-10-07T20:47:34.411Z,9.87
2022-10-07T20:49:41.313Z,9.88
2022-10-07T20:51:43.926Z,9.85
2022-10-07T20:53:50.238Z,9.87
2022-10-07T20:55:52.897Z,9.85
2022-10-07T20:57:55.763Z,9.82
2022-10-07T20:59:58.555Z,9.78
2022-10-07T21:02:04.899Z,9.73
2022-10-07T21:04:10.263Z,9.72
2022-10-07T21:06:13.213Z,9.65
2022-10-07T21:08:15.916Z,9.64
2022-10-07T21:10:18.916Z,9.63
2022-10-07T21:12:21.923Z,9.61
2022-10-07T21:14:24.892Z,9.62
2022-10-07T21:16:30.635Z,9.61
2022-10-07T21:18:33.490Z,9.63
2022-10-07T21:20:36.309Z,9.64
2022-10-07T21:22:38.934Z,9.66
2022-10-07T21:24:41.611Z,9.66
2022-10-07T21:26:44.486Z,9.67
2022-10-07T21:28:50.762Z,9.67
2022-10-07T21:31:03.071Z,9.66
2022-10-07T21:33:06.982Z,9.63
2022-10-07T21:35:10.296Z,9.61
2022-10-07T21:37:13.058Z,9.61
2022-10-07T21:39:16.128Z,9.60
2022-10-07T21:41:21.282Z,9.59
2022-10-07T21:43:24.462Z,9.60
2022-10-07T21:45:28.348Z,9.59
2022-10-07T21:47:31.002Z,9.58
2022-10-07T21:49:33.744Z,9.58
2022-10-07T21:51:36.617Z,9.57
2022-10-07T21:53:40.178Z,9.55
2022-10-07T21:55:43.718Z,9.54
2022-10-07T21:57:46.405Z,9.52
2022-10-07T21:59:49.233Z,9.49
2022-10-07T22:01:52.007Z,9.48
2022-10-07T22:03:56.708Z,9.46
2022-10-07T22:06:07.670Z,9.43
2022-10-07T22:08:35.216Z,9.40
2022-10-07T22:10:37.963Z,9.37
2022-10-07T22:12:41.228Z,9.34
2022-10-07T22:14:44.813Z,9.36
2022-10-07T22:16:48.625Z,9.34
2022-10-07T22:18:53.185Z,9.36
2022-10-07T22:20:55.794Z,9.40
2022-10-07T22:23:00.089Z,9.38
2022-10-07T22:25:03.274Z,9.43
2022-10-07T22:27:06.015Z,9.46
2022-10-07T22:29:10.460Z,9.45
2022-10-07T22:31:15.146Z,9.47
2022-10-07T22:33:17.867Z,9.47
2022-10-07T22:35:35.122Z,9.46
2022-10-07T22:37:38.503Z,9.47
2022-10-07T22:39:41.580Z,9.49
2022-10-07T22:41:44.191Z,9.48
2022-10-07T22:43:47.914Z,9.48
2022-10-07T22:45:57.684Z,9.48
2022-10-07T22:48:00.481Z,9.49
2022-10-07T22:50:08.307Z,9.46
2022-10-07T22:52:11.447Z,9.44
2022-10-07T22:54:14.804Z,9.46
2022-10-07T22:56:18.817Z,9.48
2022-10-07T22:58:21.415Z,9.40
2022-10-07T23:00:24.069Z,9.45
2022-10-07T23:02:26.964Z,9.45
2022-10-07T23:04:29.665Z,9.42
2022-10-07T23:06:35.062Z,9.45
2022-10-07T23:08:41.786Z,9.39
2022-10-07T23:10:44.464Z,9.39
2022-10-07T23:12:47.347Z,9.39
2022-10-07T23:14:50.240Z,9.37
2022-10-07T23:16:52.814Z,9.40
2022-10-07T23:18:55.713Z,9.41
2022-10-07T23:21:06.698Z,9.42
2022-10-07T23:23:09.314Z,9.43
2022-10-07T23:25:11.972Z,9.44
2022-10-07T23:27:15.250Z,9.43
2022-10-07T23:29:18.291Z,9.44
2022-10-07T23:31:23.506Z,9.45
2022-10-07T23:33:26.159Z,9.45
2022-10-07T23:35:32.141Z,9.44
2022-10-07T23:37:35.461Z,9.46
2022-10-07T23:39:38.153Z,9.47
2022-10-07T23:41:40.817Z,9.47
2022-10-07T23:43:43.476Z,9.46
2022-10-07T23:45:46.318Z,9.38
2022-10-07T23:47:49.036Z,9.44
2022-10-07T23:49:51.636Z,9.46
2022-10-07T23:51:54.287Z,9.46
2022-10-07T23:53:57.833Z,9.48
2022-10-07T23:56:01.374Z,9.47
2022-10-07T23:58:04.099Z,9.44
